createdAt,value
2018-06-25T00:00:20.261Z,93.20
2018-06-25T00:02:49.414Z,93.40
2018-06-25T00:05:18.132Z,93.30
2018-06-25T00:07:46.760Z,93.40
2018-06-25T00:10:15.284Z,93.50
2018-06-25T00:12:44.431Z,93.60
2018-06-25T00:15:13.378Z,93.60
2018-06-25T00:17:41.962Z,93.70
2018-06-25T00:20:10.597Z,93.70
2018-06-25T00:22:39.060Z,93.70
2018-06-25T00:25:07.562Z,93.80
2018-06-25T00:27:36.876Z,93.80
2018-06-25T00:30:05.453Z,93.90
2018-06-25T00:32:33.939Z,93.70
2018-06-25T00:35:02.640Z,93.80
2018-06-25T00:37:31.175Z,93.80
2018-06-25T00:39:59.759Z,93.80
2018-06-25T00:42:28.395Z,93.90
2018-06-25T00:44:56.850Z,94.10
2018-06-25T00:47:25.450Z,94.50
2018-06-25T00:49:54.723Z,94.20
2018-06-25T00:52:23.301Z,94.10
2018-06-25T00:54:51.833Z,94.30
2018-06-25T00:57:20.458Z,94.20
2018-06-25T00:59:52.015Z,94.40
2018-06-25T01:02:20.934Z,94.50
2018-06-25T01:04:49.511Z,94.40
2018-06-25T01:07:18.710Z,94.70
2018-06-25T01:09:47.467Z,94.70
2018-06-25T01:12:16.133Z,94.70
2018-06-25T01:14:45.398Z,94.80
2018-06-25T01:17:14.207Z,94.80
2018-06-25T01:19:42.772Z,94.90
2018-06-25T01:22:11.512Z,95.00
2018-06-25T01:24:40.600Z,95.20
2018-06-25T01:27:10.183Z,95.10
2018-06-25T01:29:40.504Z,95.20
2018-06-25T01:32:09.052Z,95.20
2018-06-25T01:34:38.021Z,95.60
2018-06-25T01:37:06.682Z,95.20
2018-06-25T01:39:35.240Z,95.30
2018-06-25T01:42:03.827Z,95.40
2018-06-25T01:44:32.896Z,95.60
2018-06-25T01:47:01.981Z,95.50
2018-06-25T01:49:30.507Z,95.60
2018-06-25T01:52:05.334Z,95.40
2018-06-25T01:54:33.789Z,95.70
2018-06-25T01:57:02.347Z,95.90
2018-06-25T01:59:31.516Z,95.60
2018-06-25T02:02:00.042Z,95.90
2018-06-25T02:04:28.613Z,95.90
2018-06-25T02:06:57.074Z,96.00
2018-06-25T02:09:25.750Z,96.30
2018-06-25T02:11:54.990Z,96.20
2018-06-25T02:14:24.017Z,96.20
2018-06-25T02:16:52.617Z,96.30
2018-06-25T02:19:21.135Z,96.20
2018-06-25T02:21:49.594Z,96.40
2018-06-25T02:24:18.103Z,96.40
2018-06-25T02:26:46.592Z,96.40
2018-06-25T02:29:15.064Z,96.30
2018-06-25T02:31:43.531Z,96.40
2018-06-25T02:34:12.015Z,96.70
2018-06-25T02:36:40.550Z,96.80
2018-06-25T02:39:10.695Z,96.80
2018-06-25T02:41:39.250Z,97.20
2018-06-25T02:44:08.399Z,96.80
2018-06-25T02:46:37.240Z,97.00
2018-06-25T02:49:05.732Z,96.80
2018-06-25T02:51:34.230Z,96.90
2018-06-25T02:54:02.748Z,97.20
2018-06-25T02:56:31.234Z,97.10
2018-06-25T02:58:59.715Z,97.20
2018-06-25T03:01:28.251Z,97.20
2018-06-25T03:03:56.709Z,97.40
2018-06-25T03:06:25.192Z,97.20
2018-06-25T03:08:54.519Z,97.10
2018-06-25T03:11:23.099Z,97.20
2018-06-25T03:13:52.203Z,97.30
2018-06-25T03:16:20.869Z,97.50
2018-06-25T03:18:49.357Z,97.40
2018-06-25T03:21:18.334Z,97.90
2018-06-25T03:23:46.878Z,97.50
2018-06-25T03:26:15.626Z,97.60
2018-06-25T03:28:44.120Z,97.60
2018-06-25T03:31:13.206Z,97.70
2018-06-25T03:33:41.790Z,97.70
2018-06-25T03:36:10.271Z,97.70
2018-06-25T03:38:38.818Z,97.70
2018-06-25T03:41:07.334Z,97.50
2018-06-25T03:43:35.839Z,97.60
2018-06-25T03:46:04.366Z,97.70
2018-06-25T03:48:33.377Z,97.90
2018-06-25T03:51:01.829Z,97.90
2018-06-25T03:53:30.502Z,98.20
2018-06-25T03:55:59.089Z,98.10
2018-06-25T03:58:27.586Z,97.70
2018-06-25T04:00:56.203Z,97.60
2018-06-25T04:03:25.061Z,97.70
2018-06-25T04:05:53.935Z,98.00
2018-06-25T04:08:22.482Z,98.00
2018-06-25T04:10:51.725Z,98.10
2018-06-25T04:13:20.269Z,98.00
2018-06-25T04:15:49.878Z,98.00
2018-06-25T04:18:19.097Z,98.00
2018-06-25T04:20:47.597Z,98.00
2018-06-25T04:23:16.053Z,97.90
2018-06-25T04:25:44.538Z,97.80
2018-06-25T04:28:13.033Z,98.10
2018-06-25T04:30:41.534Z,97.70
2018-06-25T04:33:10.047Z,98.00
2018-06-25T04:35:38.698Z,97.80
2018-06-25T04:38:08.018Z,98.30
2018-06-25T04:40:36.791Z,98.20
2018-06-25T04:43:05.761Z,98.00
2018-06-25T04:45:34.281Z,98.30
2018-06-25T04:48:03.468Z,98.30
2018-06-25T04:50:32.133Z,97.60
2018-06-25T04:53:00.707Z,97.90
2018-06-25T04:55:29.186Z,97.70
2018-06-25T04:57:57.815Z,97.50
2018-06-25T05:00:26.312Z,97.60
2018-06-25T05:02:54.942Z,97.70
2018-06-25T05:05:23.437Z,97.60
2018-06-25T05:07:51.925Z,98.00
2018-06-25T05:10:20.478Z,98.00
2018-06-25T05:12:49.144Z,97.90
2018-06-25T05:15:17.762Z,97.60
2018-06-25T05:17:46.643Z,98.00
2018-06-25T05:20:16.009Z,98.00
2018-06-25T05:22:45.267Z,97.70
2018-06-25T05:25:14.447Z,98.20
2018-06-25T05:27:42.973Z,98.00
2018-06-25T05:30:11.526Z,97.70
2018-06-25T05:32:40.138Z,97.80
2018-06-25T05:35:08.738Z,98.40
2018-06-25T05:37:37.418Z,98.20
2018-06-25T05:40:06.549Z,98.20
2018-06-25T05:42:35.073Z,97.90
2018-06-25T05:45:03.624Z,97.30
2018-06-25T05:47:32.117Z,97.80
2018-06-25T05:50:00.643Z,98.20
2018-06-25T05:52:29.160Z,98.00
2018-06-25T05:54:58.505Z,97.60
2018-06-25T05:57:27.142Z,97.80
2018-06-25T05:59:55.809Z,97.80
2018-06-25T06:04:52.887Z,97.20
2018-06-25T06:07:21.682Z,97.90
2018-06-25T06:09:50.136Z,97.10
2018-06-25T06:14:48.346Z,97.50
2018-06-25T06:17:17.071Z,97.80
2018-06-25T06:19:45.574Z,97.30
2018-06-25T06:22:14.105Z,97.40
2018-06-25T06:24:42.779Z,97.30
2018-06-25T06:27:11.376Z,97.80
2018-06-25T06:29:39.827Z,97.90
2018-06-25T06:32:08.372Z,97.80
2018-06-25T06:34:37.449Z,97.20
2018-06-25T06:37:05.979Z,97.60
2018-06-25T06:39:34.417Z,97.80
2018-06-25T06:42:03.413Z,97.90
2018-06-25T06:44:31.918Z,97.40
2018-06-25T06:47:00.545Z,97.80
2018-06-25T06:49:29.373Z,97.90
2018-06-25T06:51:58.103Z,97.80
2018-06-25T06:54:27.271Z,97.60
2018-06-25T06:56:56.026Z,98.00
2018-06-25T06:59:25.322Z,97.60
2018-06-25T07:01:53.831Z,97.30
2018-06-25T07:04:22.379Z,97.90
2018-06-25T07:06:51.830Z,97.50
2018-06-25T07:09:20.501Z,97.60
2018-06-25T07:11:49.201Z,97.50
2018-06-25T07:14:17.787Z,97.60
2018-06-25T07:16:46.480Z,97.50
2018-06-25T07:19:15.271Z,97.30
2018-06-25T07:21:43.993Z,97.10
2018-06-25T07:24:12.654Z,97.00
2018-06-25T07:26:41.342Z,97.10
2018-06-25T07:29:10.002Z,97.70
2018-06-25T07:31:38.473Z,97.70
2018-06-25T07:34:07.097Z,97.40
2018-06-25T07:36:35.548Z,97.40
2018-06-25T07:39:07.005Z,98.10
2018-06-25T07:41:35.553Z,98.10
2018-06-25T07:44:04.151Z,98.20
2018-06-25T07:46:32.655Z,98.30
2018-06-25T07:49:01.202Z,98.80
2018-06-25T07:51:30.442Z,98.50
2018-06-25T07:53:59.177Z,98.70
2018-06-25T07:56:27.731Z,98.30
2018-06-25T07:58:56.234Z,97.90
2018-06-25T08:01:24.802Z,98.50
2018-06-25T08:03:53.415Z,98.30
2018-06-25T08:06:21.902Z,97.70
2018-06-25T08:08:50.400Z,97.70
2018-06-25T08:11:19.506Z,97.30
2018-06-25T08:13:48.027Z,97.00
2018-06-25T08:16:16.600Z,96.50
2018-06-25T08:18:45.782Z,96.30
2018-06-25T08:21:14.304Z,96.10
2018-06-25T08:23:42.926Z,96.00
2018-06-25T08:26:12.069Z,96.70
2018-06-25T08:28:40.691Z,96.70
2018-06-25T08:31:09.183Z,95.80
2018-06-25T08:33:37.690Z,95.70
2018-06-25T08:36:06.378Z,95.80
2018-06-25T08:38:35.630Z,95.60
2018-06-25T08:41:04.255Z,95.70
2018-06-25T08:43:33.421Z,96.10
2018-06-25T08:46:01.888Z,95.40
2018-06-25T08:48:30.473Z,94.60
2018-06-25T08:50:59.463Z,94.80
2018-06-25T08:53:28.032Z,94.70
2018-06-25T08:55:56.555Z,95.40
2018-06-25T08:58:25.120Z,96.00
2018-06-25T09:00:53.617Z,95.90
2018-06-25T09:03:22.161Z,94.60
2018-06-25T09:05:50.563Z,94.50
2018-06-25T09:08:19.121Z,93.60
2018-06-25T09:10:47.785Z,93.60
2018-06-25T09:13:16.271Z,92.90
2018-06-25T09:15:44.903Z,92.30
2018-06-25T09:18:13.482Z,91.10
2018-06-25T09:20:41.958Z,89.80
2018-06-25T09:23:10.540Z,88.00
2018-06-25T09:25:39.760Z,88.40
2018-06-25T09:28:08.278Z,90.30
2018-06-25T09:30:37.488Z,89.70
2018-06-25T09:33:06.072Z,89.70
2018-06-25T09:35:34.581Z,90.10
2018-06-25T09:38:03.064Z,89.50
2018-06-25T09:40:32.196Z,90.10
2018-06-25T09:43:00.700Z,90.50
2018-06-25T09:45:29.221Z,90.50
2018-06-25T09:47:57.720Z,90.70
2018-06-25T09:50:26.226Z,91.60
2018-06-25T09:52:55.759Z,91.50
2018-06-25T09:55:24.219Z,91.40
2018-06-25T09:57:52.793Z,91.40
2018-06-25T10:00:26.600Z,91.10
2018-06-25T10:02:55.246Z,91.40
2018-06-25T10:05:23.848Z,90.30
2018-06-25T10:07:52.402Z,89.00
2018-06-25T10:10:20.944Z,88.50
2018-06-25T10:12:49.578Z,88.90
2018-06-25T10:15:18.109Z,87.90
2018-06-25T10:17:46.721Z,87.20
2018-06-25T10:20:15.408Z,87.80
2018-06-25T10:22:44.484Z,86.20
2018-06-25T10:25:12.988Z,86.20
2018-06-25T10:27:41.721Z,89.80
2018-06-25T10:30:10.265Z,89.50
2018-06-25T10:32:38.758Z,90.50
2018-06-25T10:35:07.560Z,89.50
2018-06-25T10:37:36.183Z,89.60
2018-06-25T10:40:04.754Z,88.10
2018-06-25T10:42:33.481Z,88.90
2018-06-25T10:45:01.969Z,88.90
2018-06-25T10:47:30.625Z,85.00
2018-06-25T10:49:59.068Z,84.50
2018-06-25T10:52:27.651Z,83.90
2018-06-25T10:54:56.256Z,80.90
2018-06-25T10:57:24.778Z,79.90
2018-06-25T10:59:53.433Z,81.20
2018-06-25T11:02:21.902Z,81.50
2018-06-25T11:04:50.607Z,79.20
2018-06-25T11:07:19.308Z,82.50
2018-06-25T11:09:47.667Z,83.40
2018-06-25T11:12:16.228Z,83.80
2018-06-25T11:14:44.732Z,85.10
2018-06-25T11:17:14.020Z,83.30
2018-06-25T11:19:42.605Z,84.10
2018-06-25T11:22:11.070Z,83.50
2018-06-25T11:24:39.569Z,83.90
2018-06-25T11:27:08.209Z,83.90
2018-06-25T11:29:36.721Z,81.00
2018-06-25T11:32:05.243Z,80.80
2018-06-25T11:34:34.617Z,82.60
2018-06-25T11:37:03.163Z,83.60
2018-06-25T11:39:31.826Z,81.30
2018-06-25T11:42:00.274Z,80.70
2018-06-25T11:44:29.162Z,78.80
2018-06-25T11:46:57.678Z,79.50
2018-06-25T11:49:26.178Z,78.60
2018-06-25T11:51:54.809Z,77.90
2018-06-25T11:54:24.155Z,78.60
2018-06-25T11:56:52.626Z,78.30
2018-06-25T11:59:21.261Z,81.00
2018-06-25T12:01:49.940Z,79.30
2018-06-25T12:04:18.471Z,77.00
2018-06-25T12:06:46.975Z,74.20
2018-06-25T12:09:15.467Z,76.70
2018-06-25T12:11:43.941Z,74.70
2018-06-25T12:14:12.459Z,74.50
2018-06-25T12:16:40.971Z,76.70
2018-06-25T12:19:09.505Z,77.60
2018-06-25T12:21:38.061Z,73.40
2018-06-25T12:24:07.168Z,72.20
2018-06-25T12:26:35.763Z,73.80
2018-06-25T12:29:04.489Z,72.30
2018-06-25T12:31:33.060Z,71.90
2018-06-25T12:34:01.648Z,73.00
2018-06-25T12:36:30.178Z,74.80
2018-06-25T12:38:58.686Z,74.80
2018-06-25T12:41:27.287Z,74.50
2018-06-25T12:43:55.757Z,74.90
2018-06-25T12:46:24.319Z,75.40
2018-06-25T12:48:53.318Z,78.90
2018-06-25T12:51:21.982Z,78.90
2018-06-25T12:53:50.556Z,75.70
2018-06-25T12:56:19.033Z,73.90
2018-06-25T12:58:47.517Z,75.90
2018-06-25T13:01:16.071Z,76.50
2018-06-25T13:03:44.798Z,76.80
2018-06-25T13:06:13.347Z,78.30
2018-06-25T13:08:42.108Z,77.40
2018-06-25T13:11:10.620Z,77.90
2018-06-25T13:13:39.198Z,78.40
2018-06-25T13:16:07.702Z,78.80
2018-06-25T13:18:37.251Z,76.70
2018-06-25T13:21:05.793Z,73.30
2018-06-25T13:23:34.240Z,74.60
2018-06-25T13:26:02.897Z,74.70
2018-06-25T13:28:31.985Z,74.30
2018-06-25T13:31:00.524Z,70.80
2018-06-25T13:33:29.047Z,71.00
2018-06-25T13:35:57.846Z,69.30
2018-06-25T13:38:26.477Z,68.10
2018-06-25T13:40:55.653Z,69.80
2018-06-25T13:43:24.263Z,70.70
2018-06-25T13:45:52.831Z,72.00
2018-06-25T13:48:21.430Z,70.80
2018-06-25T13:50:50.025Z,71.60
2018-06-25T13:55:46.770Z,70.40
2018-06-25T13:58:15.950Z,70.90
2018-06-25T14:00:44.671Z,71.90
2018-06-25T14:03:13.130Z,70.70
2018-06-25T14:05:41.710Z,69.70
2018-06-25T14:08:10.497Z,67.80
2018-06-25T14:10:39.061Z,70.00
2018-06-25T14:13:08.434Z,69.70
2018-06-25T14:15:37.671Z,68.40
2018-06-25T14:18:06.839Z,68.30
2018-06-25T14:20:35.445Z,68.50
2018-06-25T14:23:04.035Z,69.10
2018-06-25T14:25:37.886Z,70.40
2018-06-25T14:28:11.880Z,68.40
2018-06-25T14:30:45.580Z,68.70
2018-06-25T14:33:14.184Z,69.80
2018-06-25T14:35:42.729Z,68.80
2018-06-25T14:38:11.310Z,70.20
2018-06-25T14:40:39.858Z,70.90
2018-06-25T14:43:08.348Z,70.60
2018-06-25T14:45:36.977Z,71.20
2018-06-25T14:48:05.621Z,73.20
2018-06-25T14:50:34.148Z,73.00
2018-06-25T14:53:02.763Z,72.70
2018-06-25T14:55:31.420Z,71.20
2018-06-25T14:57:59.968Z,71.50
2018-06-25T15:00:28.542Z,72.00
2018-06-25T15:02:57.051Z,71.00
2018-06-25T15:05:25.644Z,71.70
2018-06-25T15:07:54.172Z,72.80
2018-06-25T15:10:22.753Z,72.00
2018-06-25T15:12:51.378Z,71.00
2018-06-25T15:15:20.598Z,73.90
2018-06-25T15:17:49.268Z,74.30
2018-06-25T15:20:18.112Z,74.00
2018-06-25T15:22:46.907Z,74.20
2018-06-25T15:25:15.516Z,76.10
2018-06-25T15:27:44.118Z,74.50
2018-06-25T15:30:12.636Z,73.60
2018-06-25T15:32:41.727Z,72.40
2018-06-25T15:35:10.889Z,70.80
2018-06-25T15:37:39.417Z,70.40
2018-06-25T15:40:08.107Z,73.20
2018-06-25T15:42:36.886Z,71.80
2018-06-25T15:45:05.503Z,72.40
2018-06-25T15:47:34.080Z,72.00
2018-06-25T15:50:03.107Z,71.30
2018-06-25T15:52:31.586Z,71.60
2018-06-25T15:55:00.716Z,71.10
2018-06-25T15:57:29.218Z,70.70
2018-06-25T15:59:57.921Z,72.50
2018-06-25T16:02:26.462Z,70.50
2018-06-25T16:04:55.686Z,68.60
2018-06-25T16:07:25.018Z,67.70
2018-06-25T16:09:53.629Z,68.50
2018-06-25T16:12:22.687Z,70.10
2018-06-25T16:14:51.359Z,68.30
2018-06-25T16:17:20.712Z,70.20
2018-06-25T16:19:49.952Z,69.80
2018-06-25T16:22:19.373Z,70.80
2018-06-25T16:24:48.447Z,72.90
2018-06-25T16:27:16.937Z,72.50
2018-06-25T16:29:45.655Z,72.00
2018-06-25T16:32:14.184Z,71.90
2018-06-25T16:34:43.460Z,70.60
2018-06-25T16:37:12.844Z,71.10
2018-06-25T16:39:41.466Z,70.90
2018-06-25T16:42:09.997Z,70.50
2018-06-25T16:44:38.995Z,69.10
2018-06-25T16:47:08.198Z,70.20
2018-06-25T16:49:36.748Z,69.10
2018-06-25T16:52:06.163Z,69.70
2018-06-25T16:54:34.744Z,70.30
2018-06-25T16:57:03.262Z,69.20
2018-06-25T16:59:31.915Z,70.20
2018-06-25T17:02:00.541Z,68.90
2018-06-25T17:04:29.115Z,70.70
2018-06-25T17:06:57.712Z,71.20
2018-06-25T17:09:26.293Z,70.90
2018-06-25T17:11:54.853Z,70.90
2018-06-25T17:14:23.346Z,70.50
2018-06-25T17:16:51.963Z,71.60
2018-06-25T17:19:20.536Z,72.00
2018-06-25T17:21:49.173Z,73.40
2018-06-25T17:24:18.744Z,73.30
2018-06-25T17:26:47.280Z,75.50
2018-06-25T17:29:15.760Z,75.00
2018-06-25T17:31:44.981Z,74.20
2018-06-25T17:34:13.508Z,73.10
2018-06-25T17:36:42.582Z,74.80
2018-06-25T17:39:11.161Z,75.10
2018-06-25T17:41:39.694Z,74.80
2018-06-25T17:44:08.261Z,75.20
2018-06-25T17:46:36.787Z,77.00
2018-06-25T17:49:05.334Z,76.90
2018-06-25T17:51:33.929Z,76.90
2018-06-25T17:54:02.438Z,77.90
2018-06-25T17:56:31.086Z,77.80
2018-06-25T17:58:59.570Z,78.10
2018-06-25T18:01:28.260Z,77.40
2018-06-25T18:03:56.797Z,78.30
2018-06-25T18:06:25.331Z,78.90
2018-06-25T18:08:53.850Z,78.80
2018-06-25T18:11:22.580Z,78.60
2018-06-25T18:13:51.061Z,77.80
2018-06-25T18:16:19.672Z,78.20
2018-06-25T18:18:48.173Z,79.60
2018-06-25T18:21:16.714Z,80.20
2018-06-25T18:23:45.220Z,80.10
2018-06-25T18:26:13.774Z,79.90
2018-06-25T18:28:42.355Z,80.70
2018-06-25T18:31:10.905Z,80.90
2018-06-25T18:33:39.419Z,81.20
2018-06-25T18:36:08.552Z,80.90
2018-06-25T18:38:37.141Z,80.70
2018-06-25T18:41:05.616Z,81.20
2018-06-25T18:43:34.182Z,81.70
2018-06-25T18:46:02.685Z,80.90
2018-06-25T18:48:31.203Z,81.20
2018-06-25T18:50:59.722Z,81.70
2018-06-25T18:53:28.331Z,82.00
2018-06-25T18:55:56.828Z,82.20
2018-06-25T18:58:25.315Z,82.30
2018-06-25T19:00:53.799Z,82.50
2018-06-25T19:03:22.465Z,83.50
2018-06-25T19:05:51.010Z,83.10
2018-06-25T19:08:19.517Z,83.40
2018-06-25T19:10:48.065Z,83.00
2018-06-25T19:13:16.599Z,83.30
2018-06-25T19:15:45.640Z,83.50
2018-06-25T19:18:14.126Z,84.10
2018-06-25T19:20:43.306Z,85.70
2018-06-25T19:23:11.808Z,85.20
2018-06-25T19:25:40.589Z,85.80
2018-06-25T19:28:09.073Z,85.60
2018-06-25T19:30:37.658Z,85.50
2018-06-25T19:33:06.514Z,85.20
2018-06-25T19:35:35.043Z,85.60
2018-06-25T19:38:03.721Z,87.00
2018-06-25T19:40:32.364Z,87.30
2018-06-25T19:43:01.430Z,87.70
2018-06-25T19:45:29.981Z,87.80
2018-06-25T19:47:58.698Z,88.20
2018-06-25T19:50:27.210Z,88.30
2018-06-25T19:52:55.983Z,88.40
2018-06-25T19:55:24.554Z,88.80
2018-06-25T19:57:53.703Z,89.10
2018-06-25T20:00:22.480Z,89.40
2018-06-25T20:02:52.132Z,89.80
2018-06-25T20:05:20.643Z,89.20
2018-06-25T20:07:49.181Z,90.20
2018-06-25T20:10:17.811Z,90.00
2018-06-25T20:12:46.301Z,90.00
2018-06-25T20:15:14.919Z,90.10
2018-06-25T20:17:43.497Z,90.10
2018-06-25T20:20:12.051Z,90.20
2018-06-25T20:22:40.657Z,90.20
2018-06-25T20:25:10.556Z,90.90
2018-06-25T20:27:39.624Z,90.70
2018-06-25T20:30:08.660Z,90.60
2018-06-25T20:32:37.254Z,90.80
2018-06-25T20:35:06.528Z,90.60
2018-06-25T20:37:35.054Z,90.70
2018-06-25T20:40:03.630Z,90.60
2018-06-25T20:42:32.144Z,91.00
2018-06-25T20:45:00.705Z,91.10
2018-06-25T20:47:29.287Z,91.40
2018-06-25T20:49:57.797Z,91.30
2018-06-25T20:52:26.429Z,91.50
2018-06-25T20:54:54.938Z,91.70
2018-06-25T20:57:23.524Z,91.70
2018-06-25T20:59:52.024Z,91.80
2018-06-25T21:02:20.673Z,92.00
2018-06-25T21:04:49.210Z,92.30
2018-06-25T21:07:17.709Z,92.70
2018-06-25T21:09:46.198Z,93.20
2018-06-25T21:12:14.685Z,93.30
2018-06-25T21:14:43.197Z,93.40
2018-06-25T21:17:11.714Z,93.20
2018-06-25T21:19:40.313Z,93.30
2018-06-25T21:22:08.831Z,93.20
2018-06-25T21:24:37.341Z,93.60
2018-06-25T21:27:05.799Z,93.80
2018-06-25T21:29:34.300Z,94.50
2018-06-25T21:32:02.794Z,94.70
2018-06-25T21:34:31.314Z,94.70
2018-06-25T21:36:59.925Z,95.30
2018-06-25T21:39:28.468Z,95.70
2018-06-25T21:41:57.165Z,96.00
2018-06-25T21:44:25.658Z,95.70
2018-06-25T21:46:54.732Z,95.40
2018-06-25T21:49:23.242Z,95.40
2018-06-25T21:51:51.786Z,95.40
2018-06-25T21:54:20.259Z,95.40
2018-06-25T21:56:48.980Z,95.10
2018-06-25T21:59:18.300Z,95.30
2018-06-25T22:01:51.706Z,95.20
2018-06-25T22:04:20.382Z,94.90
2018-06-25T22:06:48.880Z,95.30
2018-06-25T22:09:17.365Z,95.40
2018-06-25T22:11:45.942Z,95.30
2018-06-25T22:14:14.491Z,95.80
2018-06-25T22:16:43.195Z,96.10
2018-06-25T22:19:11.826Z,96.30
2018-06-25T22:21:40.304Z,96.10
2018-06-25T22:24:08.860Z,96.70
2018-06-25T22:26:37.340Z,96.70
2018-06-25T22:29:06.305Z,96.80
2018-06-25T22:31:35.189Z,97.20
2018-06-25T22:34:03.975Z,97.00
2018-06-25T22:36:32.565Z,97.00
2018-06-25T22:39:01.191Z,96.90
2018-06-25T22:41:29.655Z,97.10
2018-06-25T22:44:05.052Z,97.00
2018-06-25T22:46:33.616Z,97.10
2018-06-25T22:49:02.135Z,96.60
2018-06-25T22:51:30.604Z,96.50
2018-06-25T22:53:59.150Z,96.20
2018-06-25T22:56:27.740Z,96.10
2018-06-25T22:58:56.242Z,96.40
2018-06-25T23:01:24.736Z,96.30
2018-06-25T23:03:53.390Z,97.10
2018-06-25T23:06:21.865Z,97.20
2018-06-25T23:08:50.513Z,96.80
2018-06-25T23:11:18.966Z,97.60
2018-06-25T23:13:47.686Z,97.60
2018-06-25T23:16:16.221Z,97.30
2018-06-25T23:18:44.663Z,97.60
2018-06-25T23:21:13.235Z,97.50
2018-06-25T23:23:41.771Z,97.10
2018-06-25T23:26:10.296Z,97.50
2018-06-25T23:28:38.902Z,97.50
2018-06-25T23:31:07.434Z,97.40
2018-06-25T23:33:36.005Z,97.60
2018-06-25T23:36:04.521Z,97.40
2018-06-25T23:38:33.054Z,97.40
2018-06-25T23:41:02.741Z,97.00
2018-06-25T23:43:31.246Z,97.20
2018-06-25T23:45:59.720Z,97.60
2018-06-25T23:48:28.281Z,97.50
2018-06-25T23:50:57.603Z,97.30
2018-06-25T23:53:26.125Z,97.30
2018-06-25T23:55:54.754Z,97.60
2018-06-25T23:58:23.284Z,97.20
